createdAt,value
2018-09-16T00:01:18.180Z,8.67
2018-09-16T00:03:48.273Z,8.27
2018-09-16T00:06:17.317Z,8.03
2018-09-16T00:08:47.148Z,8.20
2018-09-16T00:11:16.414Z,8.67
2018-09-16T00:13:45.611Z,8.13
2018-09-16T00:16:15.527Z,8.53
2018-09-16T00:18:44.810Z,8.60
2018-09-16T00:21:14.135Z,8.37
2018-09-16T00:23:43.247Z,8.80
2018-09-16T00:26:12.420Z,8.53
2018-09-16T00:28:41.661Z,8.70
2018-09-16T00:31:10.819Z,8.27
2018-09-16T00:33:40.596Z,9.00
2018-09-16T00:36:09.807Z,8.27
2018-09-16T00:38:38.962Z,8.27
2018-09-16T00:41:07.997Z,7.97
2018-09-16T00:43:37.662Z,7.90
2018-09-16T00:46:06.960Z,7.60
2018-09-16T00:48:36.335Z,7.70
2018-09-16T00:51:05.552Z,7.67
2018-09-16T00:53:34.616Z,6.90
2018-09-16T00:56:03.703Z,7.23
2018-09-16T00:58:33.640Z,6.87
2018-09-16T01:01:03.494Z,7.30
2018-09-16T01:03:32.642Z,7.00
2018-09-16T01:06:07.337Z,6.90
2018-09-16T01:08:36.710Z,7.00
2018-09-16T01:11:05.778Z,7.23
2018-09-16T01:13:34.981Z,7.80
2018-09-16T01:16:04.143Z,8.03
2018-09-16T01:18:33.278Z,7.20
2018-09-16T01:21:03.292Z,7.67
2018-09-16T01:23:32.581Z,7.70
2018-09-16T01:26:01.712Z,6.97
2018-09-16T01:28:30.878Z,6.93
2018-09-16T01:31:00.287Z,6.83
2018-09-16T01:33:29.762Z,7.00
2018-09-16T01:35:58.942Z,6.93
2018-09-16T01:38:32.237Z,7.03
2018-09-16T01:41:01.369Z,7.00
2018-09-16T01:43:30.636Z,7.00
2018-09-16T01:46:00.106Z,6.40
2018-09-16T01:48:29.251Z,6.90
2018-09-16T01:50:58.410Z,6.63
2018-09-16T01:53:27.531Z,7.27
2018-09-16T01:55:56.661Z,7.27
2018-09-16T01:58:25.991Z,6.63
2018-09-16T02:00:55.145Z,6.93
2018-09-16T02:03:24.874Z,7.23
2018-09-16T02:05:54.818Z,7.07
2018-09-16T02:08:25.269Z,6.90
2018-09-16T02:10:54.660Z,6.97
2018-09-16T02:13:23.715Z,6.57
2018-09-16T02:15:52.873Z,6.80
2018-09-16T02:18:22.006Z,6.50
2018-09-16T02:20:51.057Z,6.97
2018-09-16T02:23:20.125Z,6.80
2018-09-16T02:25:49.358Z,7.17
2018-09-16T02:28:18.491Z,7.30
2018-09-16T02:30:47.813Z,7.30
2018-09-16T02:33:16.889Z,7.03
2018-09-16T02:35:45.989Z,6.70
2018-09-16T02:38:15.157Z,6.80
2018-09-16T02:40:44.502Z,7.97
2018-09-16T02:43:13.800Z,7.17
2018-09-16T02:45:42.919Z,6.90
2018-09-16T02:48:12.008Z,7.20
2018-09-16T02:50:41.049Z,7.00
2018-09-16T02:53:10.162Z,6.90
2018-09-16T02:55:39.220Z,6.87
2018-09-16T02:58:08.367Z,7.47
2018-09-16T03:00:37.690Z,7.00
2018-09-16T03:03:07.114Z,6.47
2018-09-16T03:05:41.799Z,6.73
2018-09-16T03:08:11.107Z,7.07
2018-09-16T03:10:40.319Z,7.20
2018-09-16T03:13:09.504Z,7.30
2018-09-16T03:15:38.573Z,6.40
2018-09-16T03:18:07.697Z,6.93
2018-09-16T03:20:36.960Z,7.23
2018-09-16T03:23:06.139Z,6.90
2018-09-16T03:25:35.548Z,6.50
2018-09-16T03:28:04.907Z,6.63
2018-09-16T03:30:34.057Z,7.10
2018-09-16T03:33:03.715Z,7.03
2018-09-16T03:35:32.932Z,7.13
2018-09-16T03:38:02.194Z,7.33
2018-09-16T03:40:31.432Z,7.30
2018-09-16T03:43:01.232Z,6.77
2018-09-16T03:45:30.433Z,7.33
2018-09-16T03:47:59.967Z,7.43
2018-09-16T03:50:29.193Z,7.33
2018-09-16T03:52:58.401Z,7.60
2018-09-16T03:55:27.694Z,7.30
2018-09-16T03:57:57.368Z,7.20
2018-09-16T04:00:26.509Z,7.67
2018-09-16T04:02:55.575Z,7.33
2018-09-16T04:05:24.630Z,7.37
2018-09-16T04:07:53.868Z,7.73
2018-09-16T04:10:22.954Z,7.43
2018-09-16T04:12:52.099Z,7.50
2018-09-16T04:15:21.316Z,7.10
2018-09-16T04:17:50.691Z,7.90
2018-09-16T04:20:19.850Z,7.87
2018-09-16T04:22:49.015Z,7.37
2018-09-16T04:25:18.396Z,7.13
2018-09-16T04:27:47.463Z,7.47
2018-09-16T04:30:16.746Z,7.23
2018-09-16T04:32:45.953Z,6.93
2018-09-16T04:35:15.713Z,7.63
2018-09-16T04:37:44.803Z,7.47
2018-09-16T04:40:13.859Z,7.03
2018-09-16T04:42:43.056Z,7.67
2018-09-16T04:45:12.215Z,7.70
2018-09-16T04:47:41.373Z,7.30
2018-09-16T04:50:10.480Z,7.47
2018-09-16T04:52:39.756Z,7.43
2018-09-16T04:55:08.957Z,7.73
2018-09-16T04:57:38.897Z,7.60
2018-09-16T05:00:08.198Z,7.30
2018-09-16T05:02:37.525Z,8.07
2018-09-16T05:05:07.155Z,7.37
2018-09-16T05:07:37.228Z,7.50
2018-09-16T05:10:06.304Z,7.90
2018-09-16T05:12:35.524Z,7.73
2018-09-16T05:15:04.742Z,7.83
2018-09-16T05:17:33.912Z,8.87
2018-09-16T05:20:03.208Z,8.03
2018-09-16T05:22:32.396Z,7.83
2018-09-16T05:25:01.510Z,8.70
2018-09-16T05:27:30.558Z,7.33
2018-09-16T05:30:00.623Z,7.53
2018-09-16T05:32:29.671Z,7.90
2018-09-16T05:34:58.755Z,7.40
2018-09-16T05:37:27.791Z,7.93
2018-09-16T05:39:57.024Z,8.00
2018-09-16T05:42:26.230Z,7.40
2018-09-16T05:44:55.365Z,7.13
2018-09-16T05:47:25.409Z,7.57
2018-09-16T05:49:54.606Z,7.60
2018-09-16T05:52:23.703Z,7.50
2018-09-16T05:54:53.358Z,7.30
2018-09-16T05:57:22.509Z,7.90
2018-09-16T05:59:51.824Z,7.80
2018-09-16T06:02:21.697Z,7.37
2018-09-16T06:04:51.860Z,7.50
2018-09-16T06:07:22.127Z,7.60
2018-09-16T06:09:51.434Z,7.60
2018-09-16T06:12:20.679Z,7.30
2018-09-16T06:14:49.904Z,7.10
2018-09-16T06:17:18.977Z,6.70
2018-09-16T06:19:48.097Z,6.77
2018-09-16T06:22:17.257Z,6.33
2018-09-16T06:24:46.500Z,6.03
2018-09-16T06:27:15.668Z,6.23
2018-09-16T06:29:44.760Z,6.63
2018-09-16T06:32:13.832Z,6.40
2018-09-16T06:34:43.039Z,6.47
2018-09-16T06:37:12.144Z,6.23
2018-09-16T06:39:41.262Z,5.67
2018-09-16T06:42:10.585Z,6.80
2018-09-16T06:44:39.868Z,6.40
2018-09-16T06:47:09.029Z,5.97
2018-09-16T06:49:38.217Z,5.40
2018-09-16T06:52:07.374Z,5.30
2018-09-16T06:54:36.628Z,5.40
2018-09-16T06:57:06.472Z,5.00
2018-09-16T06:59:36.222Z,4.77
2018-09-16T07:02:05.397Z,4.80
2018-09-16T07:04:34.570Z,5.00
2018-09-16T07:07:04.385Z,4.30
2018-09-16T07:09:33.534Z,4.40
2018-09-16T07:12:03.412Z,4.00
2018-09-16T07:14:32.746Z,4.27
2018-09-16T07:17:02.074Z,3.90
2018-09-16T07:19:31.548Z,4.10
2018-09-16T07:22:00.928Z,4.47
2018-09-16T07:24:29.976Z,4.17
2018-09-16T07:26:59.136Z,4.03
2018-09-16T07:29:28.806Z,4.30
2018-09-16T07:31:57.883Z,3.90
2018-09-16T07:34:27.803Z,4.00
2018-09-16T07:36:57.010Z,4.00
2018-09-16T07:39:26.075Z,4.00
2018-09-16T07:41:55.118Z,3.97
2018-09-16T07:44:24.271Z,3.47
2018-09-16T07:46:53.610Z,3.60
2018-09-16T07:49:22.850Z,4.20
2018-09-16T07:51:52.225Z,3.47
2018-09-16T07:54:21.708Z,3.87
2018-09-16T07:56:51.477Z,3.40
2018-09-16T07:59:20.847Z,3.40
2018-09-16T08:01:50.135Z,3.70
2018-09-16T08:04:19.898Z,3.40
2018-09-16T08:06:49.388Z,3.70
2018-09-16T08:09:18.733Z,3.37
2018-09-16T08:11:48.295Z,3.30
2018-09-16T08:14:17.691Z,3.03
2018-09-16T08:16:47.586Z,3.00
2018-09-16T08:19:17.986Z,2.90
2018-09-16T08:21:47.788Z,2.57
2018-09-16T08:24:17.042Z,2.70
2018-09-16T08:26:46.229Z,2.73
2018-09-16T08:29:16.032Z,3.13
2018-09-16T08:31:45.086Z,2.67
2018-09-16T08:34:14.424Z,2.90
2018-09-16T08:36:43.629Z,2.57
2018-09-16T08:39:12.912Z,2.47
2018-09-16T08:41:42.102Z,2.13
2018-09-16T08:44:11.347Z,2.40
2018-09-16T08:46:40.548Z,2.30
2018-09-16T08:49:09.943Z,2.23
2018-09-16T08:51:39.413Z,2.10
2018-09-16T08:54:08.557Z,2.03
2018-09-16T08:56:37.676Z,1.90
2018-09-16T08:59:07.659Z,1.80
2018-09-16T09:01:36.859Z,2.10
2018-09-16T09:04:07.032Z,2.00
2018-09-16T09:06:40.628Z,2.07
2018-09-16T09:09:11.293Z,1.80
2018-09-16T09:11:41.334Z,2.07
2018-09-16T09:14:10.732Z,1.60
2018-09-16T09:16:40.148Z,1.80
2018-09-16T09:19:09.420Z,1.87
2018-09-16T09:21:38.681Z,1.90
2018-09-16T09:24:08.320Z,1.90
2018-09-16T09:26:37.915Z,1.80
2018-09-16T09:29:07.319Z,1.70
2018-09-16T09:31:36.318Z,1.90
2018-09-16T09:34:05.520Z,1.70
2018-09-16T09:36:34.784Z,1.47
2018-09-16T09:39:05.090Z,1.80
2018-09-16T09:41:34.330Z,1.70
2018-09-16T09:44:04.423Z,1.60
2018-09-16T09:46:34.191Z,1.60
2018-09-16T09:49:03.451Z,1.50
2018-09-16T09:51:32.865Z,1.60
2018-09-16T09:54:03.441Z,1.83
2018-09-16T09:56:32.567Z,1.80
2018-09-16T09:59:01.899Z,1.70
2018-09-16T10:01:31.893Z,1.90
2018-09-16T10:04:01.199Z,2.00
2018-09-16T10:06:30.291Z,1.67
2018-09-16T10:08:59.664Z,1.70
2018-09-16T10:11:29.294Z,1.50
2018-09-16T10:13:58.518Z,1.67
2018-09-16T10:16:27.686Z,1.63
2018-09-16T10:18:56.892Z,1.33
2018-09-16T10:21:26.760Z,1.50
2018-09-16T10:23:55.922Z,1.50
2018-09-16T10:26:25.149Z,1.50
2018-09-16T10:28:54.252Z,1.70
2018-09-16T10:31:24.057Z,2.00
2018-09-16T10:33:53.351Z,1.60
2018-09-16T10:36:22.548Z,1.50
2018-09-16T10:38:51.787Z,1.47
2018-09-16T10:41:21.280Z,1.70
2018-09-16T10:43:50.521Z,1.80
2018-09-16T10:46:19.648Z,1.50
2018-09-16T10:48:48.875Z,1.53
2018-09-16T10:51:18.269Z,1.87
2018-09-16T10:53:47.667Z,1.70
2018-09-16T10:56:16.996Z,1.60
2018-09-16T10:58:46.184Z,1.57
2018-09-16T11:01:16.044Z,1.50
2018-09-16T11:03:45.213Z,1.30
2018-09-16T11:06:14.376Z,1.40
2018-09-16T11:08:43.445Z,1.60
2018-09-16T11:11:12.987Z,1.60
2018-09-16T11:13:42.992Z,1.43
2018-09-16T11:16:12.478Z,1.60
2018-09-16T11:18:41.781Z,1.60
2018-09-16T11:21:10.941Z,1.60
2018-09-16T11:23:41.217Z,1.50
2018-09-16T11:26:10.700Z,1.40
2018-09-16T11:28:39.894Z,1.60
2018-09-16T11:31:09.702Z,1.70
2018-09-16T11:33:39.872Z,1.53
2018-09-16T11:36:09.119Z,1.53
2018-09-16T11:38:38.328Z,1.30
2018-09-16T11:41:07.654Z,1.70
2018-09-16T11:43:36.823Z,1.53
2018-09-16T11:46:06.027Z,1.60
2018-09-16T11:48:36.336Z,1.37
2018-09-16T11:51:06.618Z,1.60
2018-09-16T11:53:35.668Z,1.50
2018-09-16T11:56:04.790Z,1.67
2018-09-16T11:58:33.857Z,1.60
2018-09-16T12:01:03.053Z,1.50
2018-09-16T12:03:32.409Z,1.83
2018-09-16T12:06:01.728Z,1.40
2018-09-16T12:08:30.953Z,1.67
2018-09-16T12:11:00.978Z,1.50
2018-09-16T12:13:30.110Z,1.70
2018-09-16T12:15:59.328Z,1.80
2018-09-16T12:18:28.440Z,1.40
2018-09-16T12:20:57.760Z,1.60
2018-09-16T12:23:26.918Z,1.60
2018-09-16T12:25:56.237Z,1.60
2018-09-16T12:28:25.324Z,1.50
2018-09-16T12:30:54.896Z,1.40
2018-09-16T12:33:24.093Z,1.80
2018-09-16T12:35:53.369Z,1.80
2018-09-16T12:38:22.451Z,1.50
2018-09-16T12:40:52.279Z,1.60
2018-09-16T12:43:22.798Z,1.87
2018-09-16T12:45:52.105Z,1.90
2018-09-16T12:48:21.191Z,1.50
2018-09-16T12:50:50.705Z,1.80
2018-09-16T12:53:19.936Z,1.60
2018-09-16T12:55:49.067Z,1.50
2018-09-16T12:58:18.374Z,1.50
2018-09-16T13:00:47.570Z,1.57
2018-09-16T13:03:16.658Z,1.70
2018-09-16T13:05:45.987Z,1.63
2018-09-16T13:08:16.168Z,1.60
2018-09-16T13:10:45.490Z,1.40
2018-09-16T13:13:14.662Z,1.70
2018-09-16T13:15:44.651Z,2.30
2018-09-16T13:18:13.747Z,1.80
2018-09-16T13:20:43.013Z,1.50
2018-09-16T13:23:12.557Z,1.70
2018-09-16T13:25:41.687Z,1.70
2018-09-16T13:28:11.048Z,1.50
2018-09-16T13:30:40.205Z,1.70
2018-09-16T13:33:09.321Z,1.80
2018-09-16T13:35:38.678Z,1.80
2018-09-16T13:38:07.867Z,1.57
2018-09-16T13:40:37.350Z,1.73
2018-09-16T13:43:06.936Z,1.60
2018-09-16T13:45:36.535Z,1.50
2018-09-16T13:48:06.066Z,1.67
2018-09-16T13:50:35.503Z,1.60
2018-09-16T13:53:04.782Z,1.70
2018-09-16T13:55:34.074Z,1.60
2018-09-16T13:58:03.392Z,1.50
2018-09-16T14:00:32.548Z,1.85
2018-09-16T14:03:01.708Z,1.52
2018-09-16T14:05:30.902Z,1.62
2018-09-16T14:08:00.576Z,1.65
2018-09-16T14:10:29.803Z,1.80
2018-09-16T14:12:59.047Z,1.65
2018-09-16T14:15:28.198Z,1.87
2018-09-16T14:17:57.744Z,1.67
2018-09-16T14:20:26.884Z,1.70
2018-09-16T14:22:56.832Z,1.67
2018-09-16T14:25:26.031Z,1.60
2018-09-16T14:27:55.525Z,1.60
2018-09-16T14:30:24.743Z,1.77
2018-09-16T14:32:54.036Z,1.47
2018-09-16T14:35:23.315Z,1.80
2018-09-16T14:37:52.601Z,1.60
2018-09-16T14:40:21.680Z,1.60
2018-09-16T14:42:50.863Z,2.10
2018-09-16T14:45:20.161Z,1.67
2018-09-16T14:47:49.908Z,2.00
2018-09-16T14:50:19.009Z,1.60
2018-09-16T14:52:48.280Z,1.67
2018-09-16T14:55:17.500Z,1.60
2018-09-16T14:57:47.209Z,1.60
2018-09-16T15:00:16.460Z,1.60
2018-09-16T15:02:45.791Z,1.60
2018-09-16T15:05:14.931Z,2.30
2018-09-16T15:07:44.496Z,1.80
2018-09-16T15:10:13.674Z,1.57
2018-09-16T15:12:42.855Z,1.70
2018-09-16T15:15:12.069Z,1.47
2018-09-16T15:17:42.399Z,1.70
2018-09-16T15:20:11.536Z,1.60
2018-09-16T15:22:40.691Z,1.85
2018-09-16T15:25:10.508Z,1.90
2018-09-16T15:27:39.888Z,1.70
2018-09-16T15:30:09.859Z,1.50
2018-09-16T15:32:39.129Z,1.70
2018-09-16T15:35:08.537Z,1.53
2018-09-16T15:37:37.787Z,1.70
2018-09-16T15:40:07.347Z,1.60
2018-09-16T15:42:36.459Z,1.80
2018-09-16T15:45:05.850Z,1.87
2018-09-16T15:47:34.922Z,1.70
2018-09-16T15:50:04.288Z,1.85
2018-09-16T15:52:33.401Z,1.90
2018-09-16T15:55:02.635Z,1.72
2018-09-16T15:57:31.954Z,1.70
2018-09-16T16:00:01.398Z,2.10
2018-09-16T16:02:30.966Z,1.70
2018-09-16T16:05:00.175Z,1.80
2018-09-16T16:07:30.185Z,1.60
2018-09-16T16:09:59.344Z,1.62
2018-09-16T16:12:28.654Z,1.60
2018-09-16T16:14:57.828Z,1.70
2018-09-16T16:17:27.016Z,1.70
2018-09-16T16:19:56.432Z,1.67
2018-09-16T16:22:25.668Z,1.60
2018-09-16T16:24:54.976Z,1.73
2018-09-16T16:27:24.072Z,1.70
2018-09-16T16:29:53.246Z,1.50
2018-09-16T16:32:22.554Z,1.60
2018-09-16T16:34:51.964Z,1.73
2018-09-16T16:37:21.674Z,1.80
2018-09-16T16:39:50.995Z,1.60
2018-09-16T16:42:20.242Z,1.70
2018-09-16T16:44:49.512Z,1.73
2018-09-16T16:47:18.607Z,1.90
2018-09-16T16:49:47.934Z,2.00
2018-09-16T16:52:17.404Z,2.03
2018-09-16T16:54:46.581Z,1.93
2018-09-16T16:57:16.151Z,1.93
2018-09-16T16:59:45.481Z,2.20
2018-09-16T17:02:14.605Z,1.90
2018-09-16T17:04:44.583Z,1.80
2018-09-16T17:07:14.008Z,1.90
2018-09-16T17:09:43.120Z,1.90
2018-09-16T17:12:12.261Z,2.07
2018-09-16T17:14:41.491Z,2.60
2018-09-16T17:17:10.865Z,2.90
2018-09-16T17:19:40.110Z,2.97
2018-09-16T17:22:09.294Z,3.23
2018-09-16T17:24:38.580Z,4.10
2018-09-16T17:27:08.117Z,3.37
2018-09-16T17:29:37.379Z,3.20
2018-09-16T17:32:06.560Z,2.97
2018-09-16T17:34:36.501Z,2.93
2018-09-16T17:37:05.659Z,3.07
2018-09-16T17:39:36.294Z,3.20
2018-09-16T17:42:05.545Z,3.70
2018-09-16T17:44:34.796Z,3.60
2018-09-16T17:47:04.289Z,3.93
2018-09-16T17:49:33.661Z,4.80
2018-09-16T17:52:02.773Z,4.90
2018-09-16T17:54:32.225Z,4.30
2018-09-16T17:57:01.373Z,3.47
2018-09-16T17:59:31.046Z,3.50
2018-09-16T18:02:00.263Z,2.60
2018-09-16T18:04:29.519Z,2.60
2018-09-16T18:06:58.730Z,2.80
2018-09-16T18:09:27.871Z,2.60
2018-09-16T18:11:57.030Z,2.93
2018-09-16T18:14:26.218Z,3.03
2018-09-16T18:16:55.837Z,3.10
2018-09-16T18:19:24.941Z,2.70
2018-09-16T18:21:54.148Z,2.53
2018-09-16T18:24:23.338Z,2.17
2018-09-16T18:26:52.550Z,2.30
2018-09-16T18:29:21.661Z,2.40
2018-09-16T18:31:51.012Z,2.70
2018-09-16T18:34:20.234Z,2.27
2018-09-16T18:36:49.944Z,2.60
2018-09-16T18:39:19.303Z,2.50
2018-09-16T18:41:48.371Z,2.90
2018-09-16T18:44:18.070Z,3.23
2018-09-16T18:46:47.425Z,4.43
2018-09-16T18:49:16.645Z,3.30
2018-09-16T18:51:45.945Z,3.50
2018-09-16T18:54:16.054Z,3.70
2018-09-16T18:56:45.421Z,3.90
2018-09-16T18:59:14.590Z,3.57
2018-09-16T19:01:43.779Z,3.50
2018-09-16T19:04:13.019Z,3.60
2018-09-16T19:06:42.270Z,3.57
2018-09-16T19:09:11.616Z,3.47
2018-09-16T19:11:41.089Z,3.80
2018-09-16T19:14:10.382Z,3.83
2018-09-16T19:16:39.882Z,3.80
2018-09-16T19:19:09.044Z,3.50
2018-09-16T19:21:38.364Z,3.43
2018-09-16T19:24:07.705Z,3.70
2018-09-16T19:26:36.827Z,3.50
2018-09-16T19:29:06.061Z,3.50
2018-09-16T19:31:35.268Z,3.50
2018-09-16T19:34:04.453Z,3.20
2018-09-16T19:36:33.585Z,3.30
2018-09-16T19:39:02.874Z,3.33
2018-09-16T19:41:32.071Z,3.33
2018-09-16T19:44:02.008Z,3.50
2018-09-16T19:46:31.213Z,3.70
2018-09-16T19:49:00.588Z,3.20
2018-09-16T19:51:29.773Z,3.60
2018-09-16T19:54:04.689Z,3.63
2018-09-16T19:56:35.367Z,3.60
2018-09-16T19:59:04.562Z,3.50
2018-09-16T20:01:33.711Z,3.60
2018-09-16T20:04:02.861Z,3.63
2018-09-16T20:06:32.636Z,3.20
2018-09-16T20:09:02.208Z,3.50
2018-09-16T20:11:31.368Z,4.10
2018-09-16T20:14:00.429Z,3.57
2018-09-16T20:16:29.717Z,3.40
2018-09-16T20:18:58.927Z,2.90
2018-09-16T20:21:28.507Z,3.10
2018-09-16T20:23:57.672Z,3.33
2018-09-16T20:26:26.899Z,3.10
2018-09-16T20:28:56.234Z,3.70
2018-09-16T20:31:26.555Z,3.20
2018-09-16T20:33:55.916Z,3.10
2018-09-16T20:36:25.191Z,3.20
2018-09-16T20:38:54.507Z,3.23
2018-09-16T20:41:23.608Z,3.20
2018-09-16T20:43:52.789Z,3.70
2018-09-16T20:46:21.981Z,3.90
2018-09-16T20:48:51.305Z,3.60
2018-09-16T20:51:20.364Z,3.00
2018-09-16T20:53:49.574Z,3.33
2018-09-16T20:56:19.188Z,3.30
2018-09-16T20:58:55.241Z,3.50
2018-09-16T21:01:25.691Z,2.93
2018-09-16T21:03:54.955Z,3.63
2018-09-16T21:06:24.239Z,3.90
2018-09-16T21:08:53.390Z,3.50
2018-09-16T21:11:22.609Z,3.50
2018-09-16T21:13:51.874Z,3.90
2018-09-16T21:16:21.058Z,3.80
2018-09-16T21:18:50.574Z,3.50
2018-09-16T21:21:21.335Z,3.63
2018-09-16T21:23:50.689Z,3.90
2018-09-16T21:26:20.239Z,3.70
2018-09-16T21:28:49.510Z,3.80
2018-09-16T21:31:18.785Z,3.70
2018-09-16T21:33:47.984Z,3.60
2018-09-16T21:36:17.354Z,3.93
2018-09-16T21:38:46.702Z,3.83
2018-09-16T21:41:15.947Z,3.80
2018-09-16T21:43:46.008Z,3.90
2018-09-16T21:46:15.740Z,4.53
2018-09-16T21:48:45.060Z,4.20
2018-09-16T21:51:14.140Z,4.20
2018-09-16T21:53:43.395Z,4.23
2018-09-16T21:56:15.163Z,4.83
2018-09-16T21:58:44.603Z,4.30
2018-09-16T22:01:14.584Z,4.60
2018-09-16T22:03:44.232Z,4.30
2018-09-16T22:06:13.397Z,4.37
2018-09-16T22:08:42.692Z,4.57
2018-09-16T22:11:11.839Z,4.47
2018-09-16T22:13:41.189Z,4.50
2018-09-16T22:16:10.352Z,4.90
2018-09-16T22:18:39.540Z,5.03
2018-09-16T22:21:08.805Z,4.80
2018-09-16T22:23:38.103Z,4.63
2018-09-16T22:26:07.181Z,4.70
2018-09-16T22:28:36.328Z,4.60
2018-09-16T22:31:06.011Z,4.70
2018-09-16T22:33:35.041Z,5.20
2018-09-16T22:36:04.291Z,4.50
2018-09-16T22:38:33.595Z,4.87
2018-09-16T22:41:03.616Z,4.77
2018-09-16T22:43:32.985Z,4.87
2018-09-16T22:46:02.225Z,4.73
2018-09-16T22:48:31.384Z,4.73
2018-09-16T22:51:00.461Z,4.97
2018-09-16T22:53:29.869Z,4.90
2018-09-16T22:55:59.172Z,4.73
2018-09-16T22:58:28.387Z,4.70
2018-09-16T23:00:57.824Z,4.70
2018-09-16T23:03:27.942Z,4.47
2018-09-16T23:05:57.130Z,4.60
2018-09-16T23:08:26.820Z,4.50
2018-09-16T23:10:56.696Z,4.47
2018-09-16T23:13:25.925Z,4.93
2018-09-16T23:15:56.067Z,5.03
2018-09-16T23:18:25.136Z,4.70
2018-09-16T23:20:54.344Z,4.70
2018-09-16T23:23:23.417Z,4.40
2018-09-16T23:25:52.600Z,4.93
2018-09-16T23:28:21.629Z,5.00
2018-09-16T23:30:51.239Z,4.77
2018-09-16T23:33:20.450Z,5.10
2018-09-16T23:35:49.631Z,5.27
2018-09-16T23:38:18.706Z,5.07
2018-09-16T23:40:48.023Z,5.03
2018-09-16T23:43:17.637Z,4.87
2018-09-16T23:45:46.834Z,5.07
2018-09-16T23:48:16.667Z,5.77
2018-09-16T23:50:47.787Z,5.03
2018-09-16T23:53:17.024Z,5.27
2018-09-16T23:55:46.311Z,4.83
2018-09-16T23:58:16.085Z,5.03
